UAL1773 KTPA-KDEN
Flight info
| Callsign | UAL1773 |
|---|---|
| Flight time | 3h 40m |
| Altitude | 36000 |
| Route | DORMR3 FROOT BUNNZ Y290 BLVNS KH84K LUFFS |
| Aircraft | B739/M-VGDW/C |
Departure
| Time | 2026-05-05 20:02 |
|---|---|
| Airport | Tampa International Airport (KTPA) |
Arrival
| Time | 2026-05-05 23:42 |
|---|---|
| Airport | Denver International Airport (KDEN) |
| Time | Latitude | Longitude | Altitude | Speed | Heading |
|---|---|---|---|---|---|
| 2026-05-05 19:45 | 27.97577 | -82.53161 | 42 ft | 0 kts | 291° |
| 2026-05-05 19:49 | 27.97574 | -82.53152 | 42 ft | 3 kts | 291° |
| 2026-05-05 19:49 | 27.97567 | -82.53132 | 42 ft | 3 kts | 291° |
| 2026-05-05 19:50 | 27.97561 | -82.53112 | 42 ft | 3 kts | 291° |
| 2026-05-05 19:50 | 27.97554 | -82.53093 | 42 ft | 3 kts | 291° |
| 2026-05-05 19:50 | 27.97552 | -82.53086 | 42 ft | 0 kts | 274° |
| 2026-05-05 19:53 | 27.97564 | -82.53092 | 40 ft | 3 kts | 4° |
| 2026-05-05 19:53 | 27.97590 | -82.53084 | 42 ft | 5 kts | 14° |
| 2026-05-05 19:54 | 27.97659 | -82.53069 | 39 ft | 13 kts | 6° |
| 2026-05-05 19:54 | 27.97748 | -82.53062 | 42 ft | 13 kts | 1° |
| 2026-05-05 19:54 | 27.97835 | -82.53060 | 41 ft | 12 kts | 2° |
| 2026-05-05 19:54 | 27.97930 | -82.53055 | 42 ft | 15 kts | 2° |
| 2026-05-05 19:55 | 27.98044 | -82.53052 | 42 ft | 16 kts | 1° |
| 2026-05-05 19:55 | 27.98156 | -82.53048 | 41 ft | 16 kts | 1° |
| 2026-05-05 19:55 | 27.98263 | -82.53043 | 41 ft | 15 kts | 2° |
| 2026-05-05 19:55 | 27.98365 | -82.53054 | 39 ft | 15 kts | 334° |
| 2026-05-05 19:56 | 27.98444 | -82.53122 | 42 ft | 14 kts | 327° |
| 2026-05-05 19:56 | 27.98536 | -82.53146 | 43 ft | 13 kts | 0° |
| 2026-05-05 19:56 | 27.98624 | -82.53158 | 44 ft | 13 kts | 320° |
| 2026-05-05 19:56 | 27.98642 | -82.53259 | 51 ft | 16 kts | 272° |
| 2026-05-05 19:57 | 27.98647 | -82.53407 | 61 ft | 19 kts | 272° |
| 2026-05-05 19:57 | 27.98652 | -82.53559 | 61 ft | 21 kts | 272° |
| 2026-05-05 19:57 | 27.98658 | -82.53741 | 46 ft | 25 kts | 272° |
| 2026-05-05 19:57 | 27.98664 | -82.53873 | 47 ft | 11 kts | 273° |
| 2026-05-05 19:58 | 27.98705 | -82.53943 | 46 ft | 14 kts | 342° |
| 2026-05-05 19:58 | 27.98814 | -82.53945 | 46 ft | 18 kts | 1° |
| 2026-05-05 19:58 | 27.98938 | -82.53941 | 44 ft | 18 kts | 1° |
| 2026-05-05 19:58 | 27.99061 | -82.53936 | 45 ft | 17 kts | 2° |
| 2026-05-05 19:59 | 27.99179 | -82.53932 | 44 ft | 17 kts | 2° |
| 2026-05-05 19:59 | 27.99285 | -82.53928 | 45 ft | 11 kts | 1° |
| 2026-05-05 19:59 | 27.99343 | -82.53966 | 45 ft | 10 kts | 290° |
| 2026-05-05 19:59 | 27.99348 | -82.54014 | 45 ft | 0 kts | 271° |
| 2026-05-05 20:00 | 27.99348 | -82.54024 | 43 ft | 5 kts | 271° |
| 2026-05-05 20:00 | 27.99349 | -82.54076 | 43 ft | 9 kts | 271° |
| 2026-05-05 20:01 | 27.99317 | -82.54132 | 45 ft | 9 kts | 197° |
| 2026-05-05 20:01 | 27.99248 | -82.54137 | 43 ft | 16 kts | 181° |
| 2026-05-05 20:01 | 27.98858 | -82.54150 | 49 ft | 95 kts | 181° |
| 2026-05-05 20:01 | 27.97961 | -82.54180 | 46 ft | 160 kts | 181° |
| 2026-05-05 20:02 | 27.96740 | -82.54229 | 429 ft | 184 kts | 182° |
| 2026-05-05 20:02 | 27.95471 | -82.54337 | 1294 ft | 183 kts | 196° |
| 2026-05-05 20:02 | 27.94237 | -82.54765 | 1964 ft | 193 kts | 199° |
| 2026-05-05 20:02 | 27.92917 | -82.55352 | 2186 ft | 216 kts | 217° |
| 2026-05-05 20:03 | 27.91962 | -82.56708 | 2409 ft | 234 kts | 239° |
| 2026-05-05 20:03 | 27.91093 | -82.58374 | 2621 ft | 256 kts | 238° |
| 2026-05-05 20:03 | 27.90159 | -82.60141 | 3174 ft | 266 kts | 238° |
| 2026-05-05 20:03 | 27.89201 | -82.61955 | 3947 ft | 270 kts | 237° |
| 2026-05-05 20:04 | 27.88226 | -82.63797 | 4737 ft | 274 kts | 238° |
| 2026-05-05 20:04 | 27.87250 | -82.65649 | 5553 ft | 275 kts | 238° |
| 2026-05-05 20:04 | 27.86270 | -82.67514 | 6351 ft | 276 kts | 239° |
| 2026-05-05 20:04 | 27.85282 | -82.69388 | 7100 ft | 279 kts | 239° |
| 2026-05-05 20:05 | 27.84283 | -82.71292 | 7829 ft | 282 kts | 239° |
| 2026-05-05 20:05 | 27.83277 | -82.73200 | 8577 ft | 284 kts | 239° |
| 2026-05-05 20:05 | 27.82262 | -82.75126 | 9290 ft | 286 kts | 239° |
| 2026-05-05 20:05 | 27.81235 | -82.77072 | 10020 ft | 288 kts | 239° |
| 2026-05-05 20:06 | 27.80197 | -82.79044 | 10537 ft | 300 kts | 240° |
| 2026-05-05 20:06 | 27.79089 | -82.81148 | 10704 ft | 321 kts | 240° |
| 2026-05-05 20:06 | 27.77910 | -82.83382 | 10866 ft | 341 kts | 240° |
| 2026-05-05 20:06 | 27.76664 | -82.85742 | 11012 ft | 358 kts | 240° |
| 2026-05-05 20:07 | 27.75356 | -82.88216 | 11187 ft | 372 kts | 240° |
| 2026-05-05 20:07 | 27.74034 | -82.90712 | 11607 ft | 378 kts | 240° |
| 2026-05-05 20:07 | 27.72678 | -82.93269 | 12191 ft | 379 kts | 241° |
| 2026-05-05 20:07 | 27.71326 | -82.95822 | 12771 ft | 379 kts | 241° |
| 2026-05-05 20:08 | 27.69965 | -82.98393 | 13246 ft | 382 kts | 241° |
| 2026-05-05 20:08 | 27.68590 | -83.00984 | 13691 ft | 386 kts | 242° |
| 2026-05-05 20:08 | 27.67303 | -83.03651 | 14145 ft | 387 kts | 249° |
| 2026-05-05 20:08 | 27.66429 | -83.06518 | 14646 ft | 386 kts | 258° |
| 2026-05-05 20:09 | 27.65978 | -83.09461 | 15093 ft | 386 kts | 266° |
| 2026-05-05 20:09 | 27.65724 | -83.12488 | 15548 ft | 388 kts | 266° |
| 2026-05-05 20:09 | 27.65475 | -83.15523 | 16001 ft | 390 kts | 266° |
| 2026-05-05 20:09 | 27.65212 | -83.18582 | 16413 ft | 393 kts | 266° |
| 2026-05-05 20:10 | 27.64936 | -83.21654 | 16841 ft | 394 kts | 266° |
| 2026-05-05 20:10 | 27.64650 | -83.24741 | 17275 ft | 396 kts | 266° |
| 2026-05-05 20:10 | 27.64362 | -83.27839 | 17674 ft | 398 kts | 266° |
| 2026-05-05 20:10 | 27.64069 | -83.30965 | 18064 ft | 400 kts | 267° |
| 2026-05-05 20:11 | 27.63776 | -83.34091 | 18433 ft | 402 kts | 266° |
| 2026-05-05 20:11 | 27.63485 | -83.37195 | 18803 ft | 404 kts | 267° |
| 2026-05-05 20:11 | 27.63188 | -83.40352 | 19170 ft | 405 kts | 267° |
| 2026-05-05 20:11 | 27.62888 | -83.43518 | 19531 ft | 406 kts | 266° |
| 2026-05-05 20:12 | 27.62587 | -83.46695 | 19839 ft | 408 kts | 266° |
| 2026-05-05 20:12 | 27.62285 | -83.49882 | 20178 ft | 409 kts | 266° |
| 2026-05-05 20:12 | 27.61982 | -83.53079 | 20489 ft | 411 kts | 266° |
| 2026-05-05 20:12 | 27.61677 | -83.56293 | 20788 ft | 412 kts | 266° |
| 2026-05-05 20:13 | 27.61369 | -83.59524 | 21078 ft | 414 kts | 266° |
| 2026-05-05 20:13 | 27.61060 | -83.62757 | 21368 ft | 415 kts | 266° |
| 2026-05-05 20:13 | 27.60749 | -83.66000 | 21629 ft | 417 kts | 266° |
| 2026-05-05 20:13 | 27.60436 | -83.69258 | 21892 ft | 418 kts | 266° |
| 2026-05-05 20:14 | 27.60122 | -83.72520 | 22121 ft | 420 kts | 266° |
| 2026-05-05 20:14 | 27.59805 | -83.75798 | 22361 ft | 421 kts | 266° |
| 2026-05-05 20:14 | 27.59491 | -83.79038 | 22573 ft | 422 kts | 266° |
| 2026-05-05 20:14 | 27.59171 | -83.82332 | 22806 ft | 423 kts | 266° |
| 2026-05-05 20:15 | 27.58849 | -83.85641 | 23044 ft | 424 kts | 266° |
| 2026-05-05 20:15 | 27.58525 | -83.88959 | 23244 ft | 426 kts | 266° |
| 2026-05-05 20:15 | 27.58200 | -83.92281 | 23460 ft | 427 kts | 266° |
| 2026-05-05 20:15 | 27.57873 | -83.95616 | 23651 ft | 428 kts | 266° |
| 2026-05-05 20:16 | 27.57545 | -83.98953 | 23831 ft | 429 kts | 266° |
| 2026-05-05 20:16 | 27.57215 | -84.02306 | 24032 ft | 430 kts | 266° |
| 2026-05-05 20:16 | 27.56885 | -84.05662 | 24191 ft | 431 kts | 266° |
| 2026-05-05 20:16 | 27.56555 | -84.08988 | 24351 ft | 433 kts | 266° |
| 2026-05-05 20:17 | 27.56220 | -84.12362 | 24529 ft | 433 kts | 266° |
| 2026-05-05 20:17 | 27.55991 | -84.15743 | 24686 ft | 432 kts | 272° |
| 2026-05-05 20:17 | 27.56156 | -84.19115 | 24850 ft | 430 kts | 280° |
| 2026-05-05 20:17 | 27.56693 | -84.22434 | 24983 ft | 430 kts | 282° |
| 2026-05-05 20:18 | 27.57264 | -84.25765 | 25147 ft | 431 kts | 282° |
| 2026-05-05 20:18 | 27.57826 | -84.29085 | 25306 ft | 432 kts | 282° |
| 2026-05-05 20:18 | 27.58381 | -84.32415 | 25478 ft | 432 kts | 282° |
| 2026-05-05 20:18 | 27.58922 | -84.35702 | 25620 ft | 433 kts | 282° |
| 2026-05-05 20:19 | 27.59466 | -84.39042 | 25741 ft | 434 kts | 282° |
| 2026-05-05 20:19 | 27.60008 | -84.42391 | 25894 ft | 434 kts | 282° |
| 2026-05-05 20:19 | 27.60548 | -84.45743 | 26033 ft | 435 kts | 282° |
| 2026-05-05 20:19 | 27.61089 | -84.49100 | 26158 ft | 436 kts | 282° |
| 2026-05-05 20:20 | 27.61630 | -84.52468 | 26298 ft | 436 kts | 282° |
| 2026-05-05 20:20 | 27.62170 | -84.55840 | 26416 ft | 437 kts | 282° |
| 2026-05-05 20:20 | 27.62711 | -84.59214 | 26526 ft | 438 kts | 282° |
| 2026-05-05 20:20 | 27.63254 | -84.62600 | 26627 ft | 439 kts | 282° |
| 2026-05-05 20:21 | 27.63796 | -84.65997 | 26757 ft | 440 kts | 282° |
| 2026-05-05 20:21 | 27.64337 | -84.69394 | 26978 ft | 438 kts | 282° |
| 2026-05-05 20:21 | 27.64874 | -84.72767 | 27188 ft | 436 kts | 282° |
| 2026-05-05 20:21 | 27.65403 | -84.76098 | 27351 ft | 436 kts | 282° |
| 2026-05-05 20:22 | 27.65937 | -84.79468 | 27547 ft | 435 kts | 282° |
| 2026-05-05 20:22 | 27.66471 | -84.82835 | 27737 ft | 435 kts | 282° |
| 2026-05-05 20:22 | 27.67002 | -84.86193 | 27944 ft | 434 kts | 282° |
| 2026-05-05 20:22 | 27.67531 | -84.89547 | 28142 ft | 434 kts | 282° |
| 2026-05-05 20:23 | 27.68059 | -84.92892 | 28378 ft | 432 kts | 282° |
| 2026-05-05 20:23 | 27.68584 | -84.96229 | 28599 ft | 432 kts | 282° |
| 2026-05-05 20:23 | 27.69109 | -84.99567 | 28799 ft | 432 kts | 282° |
| 2026-05-05 20:23 | 27.69632 | -85.02897 | 29046 ft | 430 kts | 282° |
| 2026-05-05 20:24 | 27.70153 | -85.06218 | 29312 ft | 429 kts | 282° |
| 2026-05-05 20:24 | 27.70671 | -85.09534 | 29547 ft | 428 kts | 282° |
| 2026-05-05 20:24 | 27.71181 | -85.12798 | 29797 ft | 428 kts | 282° |
| 2026-05-05 20:24 | 27.71697 | -85.16109 | 30065 ft | 427 kts | 282° |
| 2026-05-05 20:25 | 27.72209 | -85.19400 | 30343 ft | 426 kts | 282° |
| 2026-05-05 20:25 | 27.72720 | -85.22684 | 30652 ft | 424 kts | 283° |
| 2026-05-05 20:25 | 27.73230 | -85.25961 | 30951 ft | 423 kts | 283° |
| 2026-05-05 20:25 | 27.73734 | -85.29223 | 31257 ft | 421 kts | 283° |
| 2026-05-05 20:26 | 27.74260 | -85.32474 | 31567 ft | 419 kts | 284° |
| 2026-05-05 20:26 | 27.74852 | -85.35684 | 31885 ft | 417 kts | 285° |
| 2026-05-05 20:26 | 27.75473 | -85.38875 | 32179 ft | 416 kts | 285° |
| 2026-05-05 20:26 | 27.76101 | -85.42059 | 32463 ft | 415 kts | 285° |
| 2026-05-05 20:27 | 27.76724 | -85.45239 | 32788 ft | 413 kts | 285° |
| 2026-05-05 20:27 | 27.77329 | -85.48356 | 33123 ft | 411 kts | 285° |
| 2026-05-05 20:27 | 27.77932 | -85.51496 | 33451 ft | 408 kts | 285° |
| 2026-05-05 20:27 | 27.78530 | -85.54628 | 33740 ft | 407 kts | 285° |
| 2026-05-05 20:28 | 27.79122 | -85.57747 | 34030 ft | 404 kts | 285° |
| 2026-05-05 20:28 | 27.80303 | -85.63979 | 34057 ft | 405 kts | 285° |
| 2026-05-05 20:29 | 27.81477 | -85.70218 | 34053 ft | 406 kts | 285° |
| 2026-05-05 20:29 | 27.82642 | -85.76416 | 34052 ft | 406 kts | 285° |
| 2026-05-05 20:30 | 27.83812 | -85.82659 | 34047 ft | 407 kts | 285° |
| 2026-05-05 20:30 | 27.84982 | -85.88909 | 34045 ft | 406 kts | 285° |
| 2026-05-05 20:31 | 27.85958 | -85.94146 | 34034 ft | 406 kts | 285° |
| 2026-05-05 20:31 | 27.87114 | -86.00350 | 34044 ft | 405 kts | 285° |
| 2026-05-05 20:32 | 27.88271 | -86.06586 | 34033 ft | 405 kts | 285° |
| 2026-05-05 20:32 | 27.89423 | -86.12816 | 34036 ft | 405 kts | 284° |
| 2026-05-05 20:33 | 27.90571 | -86.19041 | 34040 ft | 404 kts | 285° |
| 2026-05-05 20:33 | 27.91710 | -86.25225 | 34037 ft | 404 kts | 285° |
| 2026-05-05 20:34 | 27.92853 | -86.31449 | 34039 ft | 404 kts | 284° |
| 2026-05-05 20:34 | 27.93996 | -86.37684 | 34046 ft | 404 kts | 284° |
| 2026-05-05 20:35 | 27.95135 | -86.43920 | 34025 ft | 405 kts | 284° |
| 2026-05-05 20:35 | 27.96272 | -86.50163 | 34041 ft | 405 kts | 284° |
| 2026-05-05 20:36 | 27.97400 | -86.56373 | 34038 ft | 405 kts | 284° |
| 2026-05-05 20:36 | 27.98535 | -86.62636 | 34042 ft | 406 kts | 284° |
| 2026-05-05 20:37 | 27.99671 | -86.68909 | 34046 ft | 407 kts | 284° |
| 2026-05-05 20:37 | 28.00800 | -86.75178 | 34049 ft | 406 kts | 285° |
| 2026-05-05 20:38 | 28.02372 | -86.81233 | 34046 ft | 403 kts | 290° |
| 2026-05-05 20:38 | 28.04199 | -86.87213 | 34032 ft | 401 kts | 291° |
| 2026-05-05 20:39 | 28.06009 | -86.93176 | 34028 ft | 400 kts | 290° |
| 2026-05-05 20:39 | 28.07791 | -86.99140 | 34025 ft | 398 kts | 290° |
| 2026-05-05 20:40 | 28.09552 | -87.05083 | 34039 ft | 398 kts | 290° |
| 2026-05-05 20:40 | 28.11307 | -87.11022 | 34026 ft | 397 kts | 290° |
| 2026-05-05 20:41 | 28.13045 | -87.16918 | 34023 ft | 396 kts | 290° |
| 2026-05-05 20:41 | 28.14785 | -87.22826 | 34027 ft | 395 kts | 290° |
| 2026-05-05 20:42 | 28.16527 | -87.28747 | 34031 ft | 396 kts | 290° |
| 2026-05-05 20:42 | 28.18257 | -87.34644 | 34026 ft | 398 kts | 290° |
| 2026-05-05 20:43 | 28.20008 | -87.40617 | 34027 ft | 400 kts | 290° |
| 2026-05-05 20:43 | 28.21758 | -87.46610 | 34031 ft | 401 kts | 290° |
| 2026-05-05 20:44 | 28.23512 | -87.52621 | 34024 ft | 402 kts | 290° |
| 2026-05-05 20:44 | 28.25263 | -87.58636 | 34023 ft | 402 kts | 290° |
| 2026-05-05 20:45 | 28.27887 | -87.67662 | 34032 ft | 401 kts | 290° |
| 2026-05-05 20:45 | 28.29615 | -87.73625 | 34031 ft | 400 kts | 290° |
| 2026-05-05 20:46 | 28.31350 | -87.79614 | 34029 ft | 399 kts | 290° |
| 2026-05-05 20:46 | 28.33077 | -87.85598 | 34030 ft | 398 kts | 290° |
| 2026-05-05 20:47 | 28.34802 | -87.91577 | 34030 ft | 398 kts | 290° |
| 2026-05-05 20:47 | 28.36519 | -87.97547 | 34029 ft | 397 kts | 290° |
| 2026-05-05 20:48 | 28.38234 | -88.03510 | 34025 ft | 397 kts | 289° |
| 2026-05-05 20:48 | 28.40067 | -88.09378 | 34031 ft | 396 kts | 291° |
| 2026-05-05 20:49 | 28.41992 | -88.15243 | 34034 ft | 396 kts | 291° |
| 2026-05-05 20:49 | 28.43909 | -88.21120 | 34023 ft | 397 kts | 291° |
| 2026-05-05 20:50 | 28.45812 | -88.27007 | 34028 ft | 397 kts | 291° |
| 2026-05-05 20:50 | 28.47705 | -88.32900 | 34030 ft | 397 kts | 291° |
| 2026-05-05 20:51 | 28.49594 | -88.38804 | 34032 ft | 397 kts | 291° |
| 2026-05-05 20:51 | 28.51485 | -88.44715 | 34029 ft | 398 kts | 291° |
| 2026-05-05 20:52 | 28.53362 | -88.50596 | 34032 ft | 398 kts | 291° |
| 2026-05-05 20:52 | 28.55252 | -88.56526 | 34027 ft | 398 kts | 291° |
| 2026-05-05 20:53 | 28.57145 | -88.62469 | 34024 ft | 399 kts | 291° |
| 2026-05-05 20:53 | 28.59033 | -88.68412 | 34027 ft | 399 kts | 291° |
| 2026-05-05 20:54 | 28.60919 | -88.74358 | 34030 ft | 399 kts | 290° |
| 2026-05-05 20:54 | 28.62788 | -88.80258 | 34031 ft | 398 kts | 290° |
| 2026-05-05 20:55 | 28.64663 | -88.86195 | 34031 ft | 398 kts | 290° |
| 2026-05-05 20:55 | 28.66538 | -88.92137 | 34031 ft | 398 kts | 290° |
| 2026-05-05 20:56 | 28.68408 | -88.98073 | 34018 ft | 398 kts | 290° |
| 2026-05-05 20:56 | 28.70276 | -89.04010 | 34022 ft | 398 kts | 290° |
| 2026-05-05 20:57 | 28.72128 | -89.09915 | 34024 ft | 398 kts | 290° |
| 2026-05-05 20:57 | 28.73993 | -89.15870 | 34018 ft | 398 kts | 290° |
| 2026-05-05 20:58 | 28.75855 | -89.21825 | 34014 ft | 398 kts | 290° |
| 2026-05-05 20:58 | 28.77706 | -89.27748 | 34008 ft | 399 kts | 290° |
| 2026-05-05 20:59 | 28.79565 | -89.33711 | 34009 ft | 399 kts | 290° |
| 2026-05-05 20:59 | 28.81420 | -89.39675 | 34009 ft | 399 kts | 290° |
| 2026-05-05 21:00 | 28.83274 | -89.45648 | 33999 ft | 399 kts | 290° |
| 2026-05-05 21:00 | 28.85124 | -89.51623 | 33995 ft | 399 kts | 290° |
| 2026-05-05 21:01 | 28.86973 | -89.57596 | 34000 ft | 399 kts | 290° |
| 2026-05-05 21:01 | 28.88822 | -89.63580 | 33996 ft | 399 kts | 290° |
| 2026-05-05 21:02 | 28.90654 | -89.69522 | 33998 ft | 399 kts | 290° |
| 2026-05-05 21:02 | 28.92496 | -89.75500 | 34002 ft | 399 kts | 290° |
| 2026-05-05 21:03 | 28.94329 | -89.81473 | 33995 ft | 399 kts | 290° |
| 2026-05-05 21:03 | 28.96160 | -89.87443 | 33992 ft | 398 kts | 290° |
| 2026-05-05 21:04 | 28.97988 | -89.93410 | 33992 ft | 398 kts | 290° |
| 2026-05-05 21:04 | 28.99956 | -89.99324 | 33986 ft | 398 kts | 296° |
| 2026-05-05 21:05 | 29.02921 | -90.04611 | 33999 ft | 399 kts | 304° |
| 2026-05-05 21:05 | 29.06251 | -90.09706 | 33993 ft | 400 kts | 304° |
| 2026-05-05 21:06 | 29.09564 | -90.14806 | 33988 ft | 399 kts | 304° |
| 2026-05-05 21:06 | 29.12868 | -90.19918 | 33992 ft | 400 kts | 304° |
| 2026-05-05 21:07 | 29.16175 | -90.25051 | 33989 ft | 400 kts | 304° |
| 2026-05-05 21:07 | 29.19459 | -90.30157 | 33992 ft | 400 kts | 304° |
| 2026-05-05 21:08 | 29.22764 | -90.35301 | 33991 ft | 400 kts | 304° |
| 2026-05-05 21:08 | 29.26058 | -90.40436 | 33990 ft | 400 kts | 304° |
| 2026-05-05 21:09 | 29.29349 | -90.45570 | 33991 ft | 399 kts | 304° |
| 2026-05-05 21:09 | 29.32634 | -90.50702 | 33990 ft | 398 kts | 304° |
| 2026-05-05 21:10 | 29.35906 | -90.55816 | 33991 ft | 398 kts | 304° |
| 2026-05-05 21:10 | 29.39169 | -90.60929 | 33992 ft | 397 kts | 304° |
| 2026-05-05 21:11 | 29.42405 | -90.66010 | 33992 ft | 396 kts | 302° |
| 2026-05-05 21:11 | 29.45659 | -90.71121 | 33990 ft | 396 kts | 303° |
| 2026-05-05 21:12 | 29.48909 | -90.76232 | 33991 ft | 396 kts | 302° |
| 2026-05-05 21:12 | 29.52161 | -90.81343 | 33991 ft | 396 kts | 302° |
| 2026-05-05 21:13 | 29.55414 | -90.86473 | 34027 ft | 400 kts | 302° |
| 2026-05-05 21:13 | 29.57053 | -90.89061 | 34236 ft | 400 kts | 302° |
| 2026-05-05 21:13 | 29.58683 | -90.91634 | 34562 ft | 397 kts | 302° |
| 2026-05-05 21:14 | 29.60305 | -90.94195 | 34845 ft | 396 kts | 302° |
| 2026-05-05 21:14 | 29.61921 | -90.96751 | 35060 ft | 396 kts | 302° |
| 2026-05-05 21:14 | 29.63539 | -90.99309 | 35293 ft | 395 kts | 302° |
| 2026-05-05 21:14 | 29.65154 | -91.01864 | 35490 ft | 395 kts | 302° |
| 2026-05-05 21:15 | 29.66752 | -91.04396 | 35656 ft | 395 kts | 302° |
| 2026-05-05 21:15 | 29.68378 | -91.06946 | 35897 ft | 394 kts | 302° |
| 2026-05-05 21:15 | 29.71651 | -91.12033 | 35978 ft | 395 kts | 302° |
| 2026-05-05 21:16 | 29.74922 | -91.17119 | 35979 ft | 394 kts | 302° |
| 2026-05-05 21:16 | 29.78156 | -91.22159 | 35973 ft | 393 kts | 302° |
| 2026-05-05 21:17 | 29.81409 | -91.27241 | 35975 ft | 393 kts | 302° |
| 2026-05-05 21:17 | 29.84660 | -91.32329 | 35972 ft | 394 kts | 302° |
| 2026-05-05 21:18 | 29.87896 | -91.37399 | 35973 ft | 395 kts | 302° |
| 2026-05-05 21:18 | 29.91148 | -91.42503 | 35968 ft | 395 kts | 302° |
| 2026-05-05 21:19 | 29.93851 | -91.46750 | 35962 ft | 395 kts | 302° |
| 2026-05-05 21:19 | 29.97103 | -91.51861 | 35955 ft | 395 kts | 302° |
| 2026-05-05 21:20 | 30.00346 | -91.56967 | 35952 ft | 394 kts | 302° |
| 2026-05-05 21:20 | 30.03585 | -91.62072 | 35942 ft | 393 kts | 302° |
| 2026-05-05 21:21 | 30.06815 | -91.67170 | 35933 ft | 393 kts | 302° |
| 2026-05-05 21:21 | 30.10018 | -91.72231 | 35933 ft | 392 kts | 301° |
| 2026-05-05 21:22 | 30.13230 | -91.77313 | 35936 ft | 391 kts | 301° |
| 2026-05-05 21:22 | 30.16431 | -91.82386 | 35937 ft | 390 kts | 301° |
| 2026-05-05 21:23 | 30.19631 | -91.87462 | 35935 ft | 390 kts | 301° |
| 2026-05-05 21:23 | 30.22809 | -91.92511 | 35926 ft | 391 kts | 301° |
| 2026-05-05 21:24 | 30.26012 | -91.97605 | 35929 ft | 391 kts | 301° |
| 2026-05-05 21:24 | 30.29215 | -92.02705 | 35928 ft | 392 kts | 301° |
| 2026-05-05 21:25 | 30.32423 | -92.07820 | 35927 ft | 392 kts | 301° |
| 2026-05-05 21:25 | 30.35631 | -92.12942 | 35926 ft | 393 kts | 301° |
| 2026-05-05 21:26 | 30.38835 | -92.18065 | 35923 ft | 393 kts | 301° |
| 2026-05-05 21:26 | 30.42040 | -92.23194 | 35916 ft | 393 kts | 301° |
| 2026-05-05 21:27 | 30.45229 | -92.28305 | 35915 ft | 392 kts | 301° |
| 2026-05-05 21:27 | 30.48429 | -92.33440 | 35917 ft | 392 kts | 301° |
| 2026-05-05 21:28 | 30.51625 | -92.38575 | 35919 ft | 392 kts | 301° |
| 2026-05-05 21:28 | 30.54797 | -92.43674 | 35914 ft | 392 kts | 301° |
| 2026-05-05 21:29 | 30.57982 | -92.48805 | 35920 ft | 391 kts | 301° |
| 2026-05-05 21:29 | 30.61161 | -92.53935 | 35920 ft | 391 kts | 301° |
| 2026-05-05 21:30 | 30.64336 | -92.59064 | 35908 ft | 391 kts | 301° |
| 2026-05-05 21:30 | 30.67508 | -92.64191 | 35906 ft | 391 kts | 301° |
| 2026-05-05 21:31 | 30.70675 | -92.69317 | 35907 ft | 390 kts | 301° |
| 2026-05-05 21:31 | 30.73836 | -92.74445 | 35907 ft | 390 kts | 301° |
| 2026-05-05 21:32 | 30.76971 | -92.79534 | 35909 ft | 389 kts | 301° |
| 2026-05-05 21:32 | 30.80128 | -92.84666 | 35901 ft | 389 kts | 301° |
| 2026-05-05 21:33 | 30.83278 | -92.89793 | 35890 ft | 389 kts | 301° |
| 2026-05-05 21:33 | 30.86425 | -92.94921 | 35883 ft | 389 kts | 300° |
| 2026-05-05 21:34 | 30.89573 | -93.00061 | 35861 ft | 389 kts | 300° |
| 2026-05-05 21:34 | 30.92698 | -93.05171 | 35873 ft | 390 kts | 300° |
| 2026-05-05 21:35 | 30.95844 | -93.10315 | 35865 ft | 390 kts | 300° |
| 2026-05-05 21:35 | 30.98989 | -93.15464 | 35881 ft | 390 kts | 300° |
| 2026-05-05 21:36 | 31.02129 | -93.20614 | 35886 ft | 389 kts | 300° |
| 2026-05-05 21:36 | 31.05265 | -93.25766 | 35877 ft | 389 kts | 300° |
| 2026-05-05 21:37 | 31.08401 | -93.30925 | 35870 ft | 389 kts | 300° |
| 2026-05-05 21:37 | 31.11516 | -93.36054 | 35884 ft | 389 kts | 300° |
| 2026-05-05 21:38 | 31.14647 | -93.41216 | 35879 ft | 389 kts | 300° |
| 2026-05-05 21:38 | 31.17769 | -93.46371 | 35887 ft | 388 kts | 300° |
| 2026-05-05 21:39 | 31.20887 | -93.51527 | 35875 ft | 388 kts | 300° |
| 2026-05-05 21:39 | 31.24006 | -93.56691 | 35860 ft | 388 kts | 300° |
| 2026-05-05 21:40 | 31.27103 | -93.61828 | 35882 ft | 388 kts | 300° |
| 2026-05-05 21:40 | 31.30214 | -93.66990 | 35867 ft | 388 kts | 300° |
| 2026-05-05 21:41 | 31.33322 | -93.72154 | 35867 ft | 388 kts | 300° |
| 2026-05-05 21:41 | 31.36429 | -93.77328 | 35855 ft | 388 kts | 300° |
| 2026-05-05 21:42 | 31.39511 | -93.82464 | 35860 ft | 388 kts | 300° |
| 2026-05-05 21:42 | 31.42612 | -93.87635 | 35858 ft | 388 kts | 300° |
| 2026-05-05 21:43 | 31.45708 | -93.92815 | 35856 ft | 388 kts | 300° |
| 2026-05-05 21:43 | 31.48789 | -93.97969 | 35846 ft | 388 kts | 300° |
| 2026-05-05 21:44 | 31.52133 | -94.02983 | 35843 ft | 391 kts | 305° |
| 2026-05-05 21:44 | 31.55759 | -94.07767 | 35834 ft | 392 kts | 305° |
| 2026-05-05 21:45 | 31.59356 | -94.12507 | 35830 ft | 391 kts | 305° |
| 2026-05-05 21:45 | 31.62950 | -94.17281 | 35837 ft | 390 kts | 305° |
| 2026-05-05 21:46 | 31.66531 | -94.22067 | 35831 ft | 390 kts | 305° |
| 2026-05-05 21:46 | 31.70106 | -94.26854 | 35824 ft | 389 kts | 305° |
| 2026-05-05 21:47 | 31.73674 | -94.31638 | 35824 ft | 389 kts | 305° |
| 2026-05-05 21:47 | 31.77233 | -94.36417 | 35822 ft | 389 kts | 304° |
| 2026-05-05 21:48 | 31.80790 | -94.41205 | 35825 ft | 388 kts | 304° |
| 2026-05-05 21:48 | 31.84325 | -94.45966 | 35825 ft | 389 kts | 304° |
| 2026-05-05 21:49 | 31.87887 | -94.50771 | 35815 ft | 389 kts | 304° |
| 2026-05-05 21:49 | 31.91439 | -94.55569 | 35815 ft | 388 kts | 304° |
| 2026-05-05 21:50 | 31.94991 | -94.60369 | 35814 ft | 389 kts | 304° |
| 2026-05-05 21:50 | 31.98546 | -94.65184 | 35807 ft | 389 kts | 304° |
| 2026-05-05 21:51 | 32.02098 | -94.69998 | 35811 ft | 389 kts | 304° |
| 2026-05-05 21:51 | 32.05627 | -94.74782 | 35805 ft | 389 kts | 304° |
| 2026-05-05 21:52 | 32.10941 | -94.82005 | 35790 ft | 389 kts | 304° |
| 2026-05-05 21:53 | 32.14480 | -94.86826 | 35802 ft | 388 kts | 304° |
| 2026-05-05 21:53 | 32.18013 | -94.91643 | 35792 ft | 388 kts | 304° |
| 2026-05-05 21:54 | 32.21543 | -94.96462 | 35799 ft | 387 kts | 304° |
| 2026-05-05 21:54 | 32.25067 | -95.01278 | 35797 ft | 387 kts | 303° |
| 2026-05-05 21:55 | 32.28572 | -95.06070 | 35799 ft | 387 kts | 303° |
| 2026-05-05 21:55 | 32.32087 | -95.10891 | 35796 ft | 387 kts | 303° |
| 2026-05-05 21:56 | 32.35605 | -95.15721 | 35797 ft | 387 kts | 303° |
| 2026-05-05 21:56 | 32.39118 | -95.20554 | 35794 ft | 387 kts | 303° |
| 2026-05-05 21:57 | 32.42613 | -95.25361 | 35791 ft | 388 kts | 303° |
| 2026-05-05 21:57 | 32.46133 | -95.30208 | 35795 ft | 388 kts | 303° |
| 2026-05-05 21:58 | 32.49651 | -95.35058 | 35794 ft | 388 kts | 303° |
| 2026-05-05 21:58 | 32.53166 | -95.39912 | 35798 ft | 388 kts | 303° |
| 2026-05-05 21:59 | 32.56658 | -95.44743 | 35790 ft | 388 kts | 303° |
| 2026-05-05 21:59 | 32.60172 | -95.49610 | 35779 ft | 388 kts | 303° |
| 2026-05-05 22:00 | 32.63694 | -95.54493 | 35781 ft | 388 kts | 303° |
| 2026-05-05 22:00 | 32.67201 | -95.59361 | 35778 ft | 388 kts | 303° |
| 2026-05-05 22:01 | 32.70710 | -95.64240 | 35778 ft | 388 kts | 303° |
| 2026-05-05 22:01 | 32.74191 | -95.69087 | 35768 ft | 388 kts | 303° |
| 2026-05-05 22:02 | 32.77690 | -95.73966 | 35769 ft | 388 kts | 303° |
| 2026-05-05 22:02 | 32.81191 | -95.78853 | 35766 ft | 388 kts | 302° |
| 2026-05-05 22:03 | 32.84685 | -95.83735 | 35769 ft | 387 kts | 302° |
| 2026-05-05 22:03 | 32.88311 | -95.88503 | 35768 ft | 389 kts | 305° |
| 2026-05-05 22:04 | 32.92042 | -95.93179 | 35768 ft | 389 kts | 305° |
| 2026-05-05 22:04 | 32.95729 | -95.97818 | 35774 ft | 388 kts | 305° |
| 2026-05-05 22:05 | 32.99428 | -96.02511 | 35753 ft | 388 kts | 304° |
| 2026-05-05 22:05 | 33.03112 | -96.07206 | 35759 ft | 387 kts | 304° |
| 2026-05-05 22:06 | 33.06782 | -96.11897 | 35765 ft | 386 kts | 304° |
| 2026-05-05 22:06 | 33.09832 | -96.15803 | 35760 ft | 387 kts | 304° |
| 2026-05-05 22:07 | 33.13497 | -96.20499 | 35756 ft | 386 kts | 303° |
| 2026-05-05 22:07 | 33.17157 | -96.25191 | 35753 ft | 386 kts | 303° |
| 2026-05-05 22:08 | 33.20810 | -96.29885 | 35761 ft | 386 kts | 303° |
| 2026-05-05 22:08 | 33.24444 | -96.34552 | 35749 ft | 386 kts | 305° |
| 2026-05-05 22:09 | 33.28106 | -96.39224 | 35756 ft | 384 kts | 303° |
| 2026-05-05 22:09 | 33.31726 | -96.43922 | 35745 ft | 384 kts | 304° |
| 2026-05-05 22:10 | 33.35317 | -96.48595 | 35745 ft | 383 kts | 303° |
| 2026-05-05 22:10 | 33.38928 | -96.53250 | 35750 ft | 381 kts | 303° |
| 2026-05-05 22:11 | 33.42523 | -96.57907 | 35757 ft | 382 kts | 303° |
| 2026-05-05 22:11 | 33.46133 | -96.62596 | 35751 ft | 384 kts | 303° |
| 2026-05-05 22:12 | 33.49771 | -96.67300 | 35755 ft | 386 kts | 303° |
| 2026-05-05 22:12 | 33.53395 | -96.72008 | 35764 ft | 386 kts | 303° |
| 2026-05-05 22:13 | 33.57036 | -96.76758 | 35768 ft | 387 kts | 303° |
| 2026-05-05 22:13 | 33.60675 | -96.81507 | 35768 ft | 387 kts | 303° |
| 2026-05-05 22:14 | 33.64318 | -96.86262 | 35772 ft | 386 kts | 303° |
| 2026-05-05 22:14 | 33.67953 | -96.91012 | 35773 ft | 385 kts | 303° |
| 2026-05-05 22:15 | 33.71581 | -96.95758 | 35783 ft | 385 kts | 302° |
| 2026-05-05 22:15 | 33.75199 | -97.00501 | 35786 ft | 384 kts | 302° |
| 2026-05-05 22:16 | 33.78792 | -97.05217 | 35793 ft | 384 kts | 302° |
| 2026-05-05 22:16 | 33.82407 | -97.09966 | 35789 ft | 384 kts | 302° |
| 2026-05-05 22:17 | 33.86013 | -97.14710 | 35797 ft | 383 kts | 302° |
| 2026-05-05 22:17 | 33.89590 | -97.19424 | 35797 ft | 384 kts | 302° |
| 2026-05-05 22:18 | 33.93187 | -97.24170 | 35806 ft | 383 kts | 302° |
| 2026-05-05 22:18 | 33.96775 | -97.28910 | 35808 ft | 383 kts | 302° |
| 2026-05-05 22:19 | 34.00366 | -97.33661 | 35808 ft | 383 kts | 302° |
| 2026-05-05 22:19 | 34.03952 | -97.38415 | 35806 ft | 383 kts | 301° |
| 2026-05-05 22:20 | 34.07533 | -97.43166 | 35811 ft | 382 kts | 301° |
| 2026-05-05 22:20 | 34.11105 | -97.47906 | 35818 ft | 382 kts | 301° |
| 2026-05-05 22:21 | 34.14674 | -97.52654 | 35814 ft | 382 kts | 301° |
| 2026-05-05 22:21 | 34.18239 | -97.57402 | 35816 ft | 381 kts | 301° |
| 2026-05-05 22:22 | 34.21796 | -97.62145 | 35822 ft | 380 kts | 301° |
| 2026-05-05 22:22 | 34.25346 | -97.66887 | 35826 ft | 380 kts | 301° |
| 2026-05-05 22:23 | 34.28890 | -97.71628 | 35840 ft | 380 kts | 301° |
| 2026-05-05 22:23 | 34.32416 | -97.76351 | 35850 ft | 381 kts | 301° |
| 2026-05-05 22:24 | 34.35965 | -97.81110 | 35855 ft | 381 kts | 301° |
| 2026-05-05 22:24 | 34.39515 | -97.85882 | 35854 ft | 381 kts | 301° |
| 2026-05-05 22:25 | 34.43071 | -97.90656 | 35854 ft | 382 kts | 300° |
| 2026-05-05 22:25 | 34.46629 | -97.95468 | 35883 ft | 385 kts | 301° |
| 2026-05-05 22:26 | 34.50226 | -98.00281 | 35865 ft | 387 kts | 303° |
| 2026-05-05 22:26 | 34.54081 | -98.04878 | 35878 ft | 389 kts | 304° |
| 2026-05-05 22:27 | 34.57990 | -98.09444 | 35872 ft | 389 kts | 304° |
| 2026-05-05 22:27 | 34.61873 | -98.14001 | 35873 ft | 388 kts | 303° |
| 2026-05-05 22:28 | 34.65725 | -98.18545 | 35871 ft | 388 kts | 303° |
| 2026-05-05 22:28 | 34.69598 | -98.23129 | 35861 ft | 388 kts | 303° |
| 2026-05-05 22:29 | 34.73467 | -98.27716 | 35858 ft | 387 kts | 303° |
| 2026-05-05 22:29 | 34.77297 | -98.32261 | 35848 ft | 387 kts | 303° |
| 2026-05-05 22:30 | 34.81150 | -98.36841 | 35854 ft | 386 kts | 303° |
| 2026-05-05 22:30 | 34.84990 | -98.41414 | 35863 ft | 386 kts | 303° |
| 2026-05-05 22:31 | 34.88829 | -98.45990 | 35865 ft | 386 kts | 303° |
| 2026-05-05 22:31 | 34.92673 | -98.50581 | 35874 ft | 386 kts | 303° |
| 2026-05-05 22:32 | 34.96488 | -98.55141 | 35876 ft | 386 kts | 303° |
| 2026-05-05 22:32 | 35.00332 | -98.59743 | 35885 ft | 387 kts | 302° |
| 2026-05-05 22:33 | 35.04181 | -98.64356 | 35890 ft | 387 kts | 302° |
| 2026-05-05 22:33 | 35.08006 | -98.68947 | 35896 ft | 388 kts | 302° |
| 2026-05-05 22:34 | 35.11852 | -98.73568 | 35898 ft | 388 kts | 302° |
| 2026-05-05 22:34 | 35.15705 | -98.78208 | 35900 ft | 389 kts | 302° |
| 2026-05-05 22:35 | 35.19566 | -98.82861 | 35908 ft | 389 kts | 302° |
| 2026-05-05 22:35 | 35.23424 | -98.87519 | 35910 ft | 389 kts | 302° |
| 2026-05-05 22:36 | 35.27252 | -98.92144 | 35903 ft | 389 kts | 302° |
| 2026-05-05 22:36 | 35.31105 | -98.96809 | 35906 ft | 389 kts | 302° |
| 2026-05-05 22:37 | 35.34957 | -99.01477 | 35903 ft | 388 kts | 302° |
| 2026-05-05 22:37 | 35.38800 | -99.06142 | 35911 ft | 388 kts | 302° |
| 2026-05-05 22:38 | 35.42633 | -99.10803 | 35903 ft | 387 kts | 302° |
| 2026-05-05 22:38 | 35.46435 | -99.15431 | 35906 ft | 387 kts | 302° |
| 2026-05-05 22:39 | 35.50258 | -99.20093 | 35910 ft | 387 kts | 302° |
| 2026-05-05 22:39 | 35.54082 | -99.24763 | 35902 ft | 388 kts | 302° |
| 2026-05-05 22:40 | 35.57908 | -99.29438 | 35909 ft | 388 kts | 302° |
| 2026-05-05 22:40 | 35.61730 | -99.34119 | 35908 ft | 388 kts | 301° |
| 2026-05-05 22:41 | 35.65558 | -99.38813 | 35901 ft | 389 kts | 301° |
| 2026-05-05 22:41 | 35.69388 | -99.43518 | 35893 ft | 390 kts | 301° |
| 2026-05-05 22:42 | 35.73246 | -99.48229 | 35898 ft | 393 kts | 303° |
| 2026-05-05 22:42 | 35.77316 | -99.52785 | 35912 ft | 396 kts | 304° |
| 2026-05-05 22:43 | 35.81439 | -99.57290 | 35923 ft | 395 kts | 304° |
| 2026-05-05 22:43 | 35.85529 | -99.61803 | 35921 ft | 395 kts | 304° |
| 2026-05-05 22:44 | 35.89590 | -99.66315 | 35927 ft | 395 kts | 304° |
| 2026-05-05 22:44 | 35.93680 | -99.70872 | 35938 ft | 397 kts | 303° |
| 2026-05-05 22:45 | 35.97779 | -99.75453 | 35942 ft | 397 kts | 303° |
| 2026-05-05 22:45 | 36.01880 | -99.80031 | 35945 ft | 397 kts | 303° |
| 2026-05-05 22:46 | 36.05941 | -99.84579 | 35935 ft | 396 kts | 303° |
| 2026-05-05 22:46 | 36.10007 | -99.89146 | 35941 ft | 394 kts | 303° |
| 2026-05-05 22:47 | 36.14067 | -99.93707 | 35943 ft | 394 kts | 303° |
| 2026-05-05 22:47 | 36.18121 | -99.98265 | 35945 ft | 393 kts | 303° |
| 2026-05-05 22:48 | 36.22168 | -100.02823 | 35945 ft | 393 kts | 303° |
| 2026-05-05 22:48 | 36.26208 | -100.07367 | 35946 ft | 392 kts | 303° |
| 2026-05-05 22:49 | 36.30234 | -100.11932 | 35942 ft | 392 kts | 303° |
| 2026-05-05 22:49 | 36.34265 | -100.16503 | 35950 ft | 392 kts | 303° |
| 2026-05-05 22:50 | 36.38276 | -100.21051 | 35954 ft | 393 kts | 303° |
| 2026-05-05 22:50 | 36.42310 | -100.25630 | 35949 ft | 393 kts | 303° |
| 2026-05-05 22:51 | 36.46354 | -100.30227 | 35960 ft | 395 kts | 303° |
| 2026-05-05 22:51 | 36.50410 | -100.34845 | 35959 ft | 396 kts | 303° |
| 2026-05-05 22:52 | 36.53789 | -100.38700 | 35955 ft | 397 kts | 303° |
| 2026-05-05 22:52 | 36.57871 | -100.43360 | 35958 ft | 398 kts | 303° |
| 2026-05-05 22:53 | 36.61957 | -100.48031 | 35954 ft | 399 kts | 303° |
| 2026-05-05 22:53 | 36.66046 | -100.52714 | 35950 ft | 400 kts | 303° |
| 2026-05-05 22:54 | 36.70109 | -100.57372 | 35954 ft | 399 kts | 303° |
| 2026-05-05 22:54 | 36.74198 | -100.62066 | 35956 ft | 399 kts | 303° |
| 2026-05-05 22:55 | 36.78285 | -100.66768 | 35967 ft | 399 kts | 303° |
| 2026-05-05 22:55 | 36.82367 | -100.71471 | 35963 ft | 399 kts | 303° |
| 2026-05-05 22:56 | 36.86450 | -100.76185 | 35962 ft | 399 kts | 303° |
| 2026-05-05 22:56 | 36.90503 | -100.80867 | 35966 ft | 400 kts | 303° |
| 2026-05-05 22:57 | 36.94585 | -100.85592 | 35973 ft | 400 kts | 303° |
| 2026-05-05 22:57 | 36.98665 | -100.90314 | 35976 ft | 399 kts | 303° |
| 2026-05-05 22:58 | 37.02734 | -100.95050 | 35974 ft | 399 kts | 303° |
| 2026-05-05 22:58 | 37.06592 | -100.99957 | 35981 ft | 390 kts | 298° |
| 2026-05-05 22:59 | 37.10108 | -101.05120 | 35969 ft | 389 kts | 297° |
| 2026-05-05 22:59 | 37.13591 | -101.10275 | 35976 ft | 390 kts | 297° |
| 2026-05-05 23:00 | 37.18892 | -101.18059 | 35969 ft | 393 kts | 297° |
| 2026-05-05 23:00 | 37.22453 | -101.23264 | 35970 ft | 393 kts | 297° |
| 2026-05-05 23:01 | 37.26011 | -101.28474 | 35970 ft | 393 kts | 297° |
| 2026-05-05 23:01 | 37.29552 | -101.33665 | 35972 ft | 393 kts | 297° |
| 2026-05-05 23:02 | 37.33113 | -101.38899 | 35969 ft | 394 kts | 297° |
| 2026-05-05 23:02 | 37.36680 | -101.44146 | 35973 ft | 394 kts | 297° |
| 2026-05-05 23:03 | 37.40244 | -101.49401 | 35973 ft | 394 kts | 297° |
| 2026-05-05 23:03 | 37.43795 | -101.54643 | 35966 ft | 393 kts | 297° |
| 2026-05-05 23:04 | 37.47337 | -101.59881 | 35974 ft | 393 kts | 297° |
| 2026-05-05 23:04 | 37.50851 | -101.65078 | 35972 ft | 392 kts | 297° |
| 2026-05-05 23:05 | 37.54378 | -101.70312 | 35970 ft | 391 kts | 297° |
| 2026-05-05 23:05 | 37.57905 | -101.75555 | 35973 ft | 391 kts | 297° |
| 2026-05-05 23:06 | 37.61429 | -101.80800 | 35973 ft | 392 kts | 297° |
| 2026-05-05 23:06 | 37.64934 | -101.86024 | 35972 ft | 392 kts | 297° |
| 2026-05-05 23:07 | 37.68463 | -101.91295 | 35975 ft | 393 kts | 297° |
| 2026-05-05 23:07 | 37.71995 | -101.96579 | 35974 ft | 393 kts | 297° |
| 2026-05-05 23:08 | 37.75528 | -102.01871 | 35971 ft | 394 kts | 297° |
| 2026-05-05 23:08 | 37.79046 | -102.07149 | 35973 ft | 394 kts | 297° |
| 2026-05-05 23:09 | 37.82580 | -102.12458 | 35972 ft | 394 kts | 297° |
| 2026-05-05 23:09 | 37.86271 | -102.17667 | 35976 ft | 400 kts | 300° |
| 2026-05-05 23:10 | 37.90105 | -102.22779 | 35968 ft | 400 kts | 300° |
| 2026-05-05 23:10 | 37.93912 | -102.27880 | 35972 ft | 399 kts | 300° |
| 2026-05-05 23:11 | 37.97688 | -102.32987 | 35979 ft | 398 kts | 300° |
| 2026-05-05 23:11 | 38.01461 | -102.38117 | 35977 ft | 397 kts | 300° |
| 2026-05-05 23:12 | 38.05227 | -102.43247 | 35985 ft | 396 kts | 300° |
| 2026-05-05 23:12 | 38.08985 | -102.48370 | 35984 ft | 396 kts | 299° |
| 2026-05-05 23:13 | 38.12743 | -102.53507 | 35982 ft | 397 kts | 300° |
| 2026-05-05 23:13 | 38.16492 | -102.58640 | 35985 ft | 398 kts | 300° |
| 2026-05-05 23:14 | 38.20264 | -102.63806 | 35986 ft | 398 kts | 299° |
| 2026-05-05 23:14 | 38.24030 | -102.68975 | 35978 ft | 399 kts | 299° |
| 2026-05-05 23:15 | 38.27781 | -102.74133 | 35988 ft | 400 kts | 299° |
| 2026-05-05 23:15 | 38.31561 | -102.79338 | 35978 ft | 400 kts | 299° |
| 2026-05-05 23:16 | 38.35347 | -102.84560 | 35981 ft | 401 kts | 299° |
| 2026-05-05 23:16 | 38.39134 | -102.89789 | 35980 ft | 401 kts | 299° |
| 2026-05-05 23:17 | 38.42898 | -102.95002 | 35976 ft | 402 kts | 299° |
| 2026-05-05 23:17 | 38.46684 | -103.00250 | 35977 ft | 402 kts | 299° |
| 2026-05-05 23:18 | 38.50475 | -103.05513 | 35972 ft | 402 kts | 299° |
| 2026-05-05 23:18 | 38.54267 | -103.10785 | 35970 ft | 403 kts | 299° |
| 2026-05-05 23:19 | 38.58051 | -103.16054 | 35974 ft | 402 kts | 299° |
| 2026-05-05 23:19 | 38.61834 | -103.21336 | 35972 ft | 402 kts | 299° |
| 2026-05-05 23:20 | 38.65613 | -103.26630 | 35376 ft | 411 kts | 299° |
| 2026-05-05 23:20 | 38.67542 | -103.29336 | 34685 ft | 412 kts | 299° |
| 2026-05-05 23:20 | 38.69476 | -103.32041 | 33936 ft | 411 kts | 299° |
| 2026-05-05 23:21 | 38.71415 | -103.34755 | 33130 ft | 412 kts | 300° |
| 2026-05-05 23:21 | 38.73348 | -103.37466 | 32299 ft | 413 kts | 300° |
| 2026-05-05 23:21 | 38.75286 | -103.40186 | 31544 ft | 412 kts | 300° |
| 2026-05-05 23:21 | 38.77208 | -103.42882 | 30967 ft | 408 kts | 300° |
| 2026-05-05 23:22 | 38.79110 | -103.45552 | 30363 ft | 404 kts | 300° |
| 2026-05-05 23:22 | 38.80995 | -103.48215 | 29783 ft | 400 kts | 300° |
| 2026-05-05 23:22 | 38.82853 | -103.50848 | 29206 ft | 397 kts | 301° |
| 2026-05-05 23:22 | 38.84670 | -103.53419 | 28647 ft | 392 kts | 301° |
| 2026-05-05 23:23 | 38.86498 | -103.55996 | 28073 ft | 389 kts | 302° |
| 2026-05-05 23:23 | 38.88317 | -103.58565 | 27505 ft | 386 kts | 302° |
| 2026-05-05 23:23 | 38.90113 | -103.61110 | 26942 ft | 383 kts | 303° |
| 2026-05-05 23:23 | 38.91894 | -103.63635 | 26395 ft | 380 kts | 303° |
| 2026-05-05 23:24 | 38.93669 | -103.66158 | 25847 ft | 379 kts | 304° |
| 2026-05-05 23:24 | 38.95443 | -103.68681 | 25305 ft | 382 kts | 304° |
| 2026-05-05 23:24 | 38.97239 | -103.71241 | 24767 ft | 387 kts | 305° |
| 2026-05-05 23:24 | 38.99023 | -103.73778 | 24196 ft | 386 kts | 306° |
| 2026-05-05 23:25 | 39.00817 | -103.76331 | 23645 ft | 383 kts | 306° |
| 2026-05-05 23:25 | 39.02595 | -103.78860 | 23123 ft | 379 kts | 307° |
| 2026-05-05 23:25 | 39.04353 | -103.81365 | 22584 ft | 376 kts | 306° |
| 2026-05-05 23:25 | 39.06096 | -103.83854 | 22049 ft | 372 kts | 306° |
| 2026-05-05 23:26 | 39.07825 | -103.86325 | 21514 ft | 369 kts | 306° |
| 2026-05-05 23:26 | 39.09535 | -103.88771 | 20982 ft | 366 kts | 307° |
| 2026-05-05 23:26 | 39.11224 | -103.91186 | 20728 ft | 356 kts | 307° |
| 2026-05-05 23:26 | 39.12855 | -103.93520 | 20481 ft | 346 kts | 306° |
| 2026-05-05 23:27 | 39.14437 | -103.95802 | 20021 ft | 344 kts | 306° |
| 2026-05-05 23:27 | 39.16020 | -103.98102 | 19554 ft | 341 kts | 306° |
| 2026-05-05 23:27 | 39.17585 | -104.00381 | 19086 ft | 338 kts | 306° |
| 2026-05-05 23:27 | 39.19141 | -104.02648 | 18619 ft | 336 kts | 306° |
| 2026-05-05 23:28 | 39.20683 | -104.04895 | 18163 ft | 333 kts | 306° |
| 2026-05-05 23:28 | 39.22226 | -104.07122 | 17697 ft | 332 kts | 307° |
| 2026-05-05 23:28 | 39.23768 | -104.09321 | 17237 ft | 329 kts | 306° |
| 2026-05-05 23:28 | 39.25249 | -104.11518 | 16889 ft | 324 kts | 306° |
| 2026-05-05 23:29 | 39.26709 | -104.13668 | 16763 ft | 313 kts | 306° |
| 2026-05-05 23:29 | 39.28131 | -104.15746 | 16623 ft | 303 kts | 306° |
| 2026-05-05 23:29 | 39.29494 | -104.17760 | 16492 ft | 291 kts | 302° |
| 2026-05-05 23:29 | 39.30383 | -104.20017 | 16216 ft | 278 kts | 283° |
| 2026-05-05 23:30 | 39.30841 | -104.22419 | 15903 ft | 273 kts | 278° |
| 2026-05-05 23:30 | 39.31087 | -104.24009 | 15668 ft | 272 kts | 278° |
| 2026-05-05 23:30 | 39.31564 | -104.27205 | 15229 ft | 275 kts | 278° |
| 2026-05-05 23:30 | 39.31934 | -104.29655 | 14856 ft | 281 kts | 278° |
| 2026-05-05 23:31 | 39.32318 | -104.32150 | 14508 ft | 286 kts | 278° |
| 2026-05-05 23:31 | 39.32710 | -104.34674 | 14135 ft | 286 kts | 278° |
| 2026-05-05 23:31 | 39.33085 | -104.37185 | 13786 ft | 285 kts | 279° |
| 2026-05-05 23:31 | 39.33515 | -104.39669 | 13653 ft | 280 kts | 277° |
| 2026-05-05 23:32 | 39.33872 | -104.42097 | 13504 ft | 272 kts | 279° |
| 2026-05-05 23:32 | 39.34265 | -104.44454 | 13298 ft | 266 kts | 278° |
| 2026-05-05 23:32 | 39.34630 | -104.46805 | 12985 ft | 265 kts | 278° |
| 2026-05-05 23:32 | 39.35010 | -104.49147 | 12651 ft | 267 kts | 279° |
| 2026-05-05 23:33 | 39.35397 | -104.51496 | 12350 ft | 267 kts | 278° |
| 2026-05-05 23:33 | 39.35763 | -104.53827 | 12231 ft | 262 kts | 281° |
| 2026-05-05 23:33 | 39.36158 | -104.56094 | 12105 ft | 255 kts | 278° |
| 2026-05-05 23:33 | 39.36607 | -104.58280 | 11979 ft | 253 kts | 294° |
| 2026-05-05 23:34 | 39.37594 | -104.60101 | 11796 ft | 250 kts | 317° |
| 2026-05-05 23:34 | 39.39030 | -104.61357 | 11655 ft | 246 kts | 321° |
| 2026-05-05 23:34 | 39.40416 | -104.62678 | 11453 ft | 249 kts | 321° |
| 2026-05-05 23:34 | 39.41780 | -104.63990 | 11316 ft | 242 kts | 323° |
| 2026-05-05 23:35 | 39.43373 | -104.64708 | 11116 ft | 250 kts | 357° |
| 2026-05-05 23:35 | 39.45140 | -104.64674 | 10933 ft | 255 kts | 0° |
| 2026-05-05 23:35 | 39.46918 | -104.64589 | 10738 ft | 255 kts | 359° |
| 2026-05-05 23:35 | 39.48696 | -104.64594 | 10550 ft | 256 kts | 360° |
| 2026-05-05 23:36 | 39.50461 | -104.64604 | 10359 ft | 251 kts | 357° |
| 2026-05-05 23:36 | 39.52181 | -104.64559 | 10153 ft | 251 kts | 360° |
| 2026-05-05 23:36 | 39.53918 | -104.64553 | 9978 ft | 251 kts | 0° |
| 2026-05-05 23:36 | 39.55658 | -104.64528 | 9808 ft | 251 kts | 359° |
| 2026-05-05 23:37 | 39.57384 | -104.64556 | 9592 ft | 242 kts | 4° |
| 2026-05-05 23:37 | 39.59010 | -104.64514 | 9427 ft | 224 kts | 2° |
| 2026-05-05 23:37 | 39.60502 | -104.64418 | 9244 ft | 208 kts | 2° |
| 2026-05-05 23:37 | 39.61903 | -104.64419 | 9130 ft | 200 kts | 359° |
| 2026-05-05 23:38 | 39.63281 | -104.64444 | 8965 ft | 196 kts | 1° |
| 2026-05-05 23:38 | 39.64646 | -104.64313 | 8723 ft | 196 kts | 8° |
| 2026-05-05 23:38 | 39.66020 | -104.64367 | 8507 ft | 198 kts | 356° |
| 2026-05-05 23:38 | 39.67364 | -104.64348 | 8461 ft | 193 kts | 2° |
| 2026-05-05 23:39 | 39.68744 | -104.64343 | 8186 ft | 198 kts | 359° |
| 2026-05-05 23:39 | 39.70126 | -104.64367 | 7938 ft | 201 kts | 3° |
| 2026-05-05 23:39 | 39.71046 | -104.64312 | 7758 ft | 197 kts | 2° |
| 2026-05-05 23:39 | 39.72759 | -104.64298 | 7401 ft | 176 kts | 0° |
| 2026-05-05 23:40 | 39.73983 | -104.64272 | 7197 ft | 176 kts | 359° |
| 2026-05-05 23:40 | 39.75183 | -104.64244 | 6951 ft | 170 kts | 358° |
| 2026-05-05 23:40 | 39.75973 | -104.64281 | 6817 ft | 169 kts | 0° |
| 2026-05-05 23:40 | 39.77118 | -104.64218 | 6586 ft | 160 kts | 4° |
| 2026-05-05 23:41 | 39.78203 | -104.64224 | 6382 ft | 152 kts | 1° |
| 2026-05-05 23:41 | 39.79268 | -104.64219 | 6187 ft | 154 kts | 2° |
| 2026-05-05 23:41 | 39.80347 | -104.64207 | 5973 ft | 154 kts | 2° |
| 2026-05-05 23:41 | 39.81420 | -104.64194 | 5771 ft | 154 kts | 2° |
| 2026-05-05 23:42 | 39.82492 | -104.64181 | 5564 ft | 154 kts | 1° |
| 2026-05-05 23:42 | 39.83558 | -104.64167 | 5374 ft | 150 kts | 1° |
| 2026-05-05 23:42 | 39.84408 | -104.64157 | 5363 ft | 93 kts | 0° |
| 2026-05-05 23:42 | 39.84841 | -104.64151 | 5361 ft | 31 kts | 0° |
| 2026-05-05 23:43 | 39.84996 | -104.64154 | 5358 ft | 21 kts | 354° |
| 2026-05-05 23:43 | 39.85131 | -104.64185 | 5358 ft | 18 kts | 343° |
| 2026-05-05 23:43 | 39.85229 | -104.64239 | 5357 ft | 7 kts | 331° |
| 2026-05-05 23:43 | 39.85272 | -104.64271 | 5356 ft | 7 kts | 331° |
| 2026-05-05 23:44 | 39.85315 | -104.64301 | 5356 ft | 7 kts | 331° |
| 2026-05-05 23:44 | 39.85356 | -104.64331 | 5354 ft | 7 kts | 332° |
| 2026-05-05 23:44 | 39.85400 | -104.64351 | 5355 ft | 7 kts | 342° |
| 2026-05-05 23:44 | 39.85469 | -104.64357 | 5354 ft | 17 kts | 1° |
| 2026-05-05 23:45 | 39.85583 | -104.64355 | 5352 ft | 12 kts | 1° |
| 2026-05-05 23:45 | 39.85657 | -104.64391 | 5352 ft | 12 kts | 298° |
| 2026-05-05 23:45 | 39.85665 | -104.64498 | 5352 ft | 12 kts | 271° |
| 2026-05-05 23:45 | 39.85666 | -104.64603 | 5355 ft | 11 kts | 270° |
| 2026-05-05 23:46 | 39.85667 | -104.64705 | 5358 ft | 11 kts | 270° |
| 2026-05-05 23:46 | 39.85667 | -104.64805 | 5361 ft | 11 kts | 270° |
| 2026-05-05 23:46 | 39.85668 | -104.64900 | 5361 ft | 11 kts | 271° |
| 2026-05-05 23:46 | 39.85670 | -104.64994 | 5367 ft | 10 kts | 269° |
| 2026-05-05 23:47 | 39.85669 | -104.65085 | 5368 ft | 10 kts | 270° |
| 2026-05-05 23:47 | 39.85669 | -104.65174 | 5370 ft | 10 kts | 270° |
| 2026-05-05 23:47 | 39.85671 | -104.65261 | 5371 ft | 9 kts | 271° |
| 2026-05-05 23:47 | 39.85672 | -104.65345 | 5377 ft | 9 kts | 270° |
| 2026-05-05 23:48 | 39.85672 | -104.65435 | 5376 ft | 12 kts | 270° |
| 2026-05-05 23:48 | 39.85673 | -104.65539 | 5382 ft | 11 kts | 270° |
| 2026-05-05 23:48 | 39.85674 | -104.65647 | 5383 ft | 13 kts | 271° |
| 2026-05-05 23:48 | 39.85675 | -104.65762 | 5387 ft | 13 kts | 270° |
| 2026-05-05 23:49 | 39.85676 | -104.65877 | 5389 ft | 13 kts | 271° |
| 2026-05-05 23:49 | 39.85677 | -104.66000 | 5387 ft | 14 kts | 270° |
| 2026-05-05 23:49 | 39.85678 | -104.66121 | 5393 ft | 13 kts | 270° |
| 2026-05-05 23:49 | 39.85695 | -104.66215 | 5386 ft | 11 kts | 315° |
| 2026-05-05 23:50 | 39.85772 | -104.66234 | 5385 ft | 12 kts | 0° |
| 2026-05-05 23:50 | 39.85851 | -104.66233 | 5387 ft | 11 kts | 0° |
| 2026-05-05 23:50 | 39.85928 | -104.66232 | 5387 ft | 11 kts | 0° |
| 2026-05-05 23:50 | 39.85992 | -104.66241 | 5386 ft | 8 kts | 331° |
| 2026-05-05 23:51 | 39.86017 | -104.66330 | 5384 ft | 15 kts | 272° |
| 2026-05-05 23:51 | 39.86018 | -104.66479 | 5380 ft | 14 kts | 272° |
| 2026-05-05 23:51 | 39.86056 | -104.66592 | 5377 ft | 13 kts | 287° |
| 2026-05-05 23:51 | 39.86060 | -104.66711 | 5374 ft | 13 kts | 270° |
| 2026-05-05 23:52 | 39.86061 | -104.66827 | 5376 ft | 13 kts | 270° |
| 2026-05-05 23:52 | 39.86062 | -104.66944 | 5377 ft | 15 kts | 270° |
| 2026-05-05 23:52 | 39.86063 | -104.67082 | 5376 ft | 15 kts | 271° |
| 2026-05-05 23:52 | 39.86064 | -104.67215 | 5374 ft | 14 kts | 269° |
| 2026-05-05 23:53 | 39.86064 | -104.67343 | 5374 ft | 14 kts | 271° |
| 2026-05-05 23:53 | 39.86065 | -104.67464 | 5374 ft | 13 kts | 270° |
| 2026-05-05 23:53 | 39.86066 | -104.67581 | 5376 ft | 13 kts | 269° |
| 2026-05-05 23:53 | 39.86059 | -104.67687 | 5378 ft | 10 kts | 252° |
| 2026-05-05 23:54 | 39.86019 | -104.67746 | 5379 ft | 8 kts | 204° |
| 2026-05-05 23:54 | 39.85969 | -104.67754 | 5379 ft | 6 kts | 180° |
| 2026-05-05 23:54 | 39.85942 | -104.67754 | 5379 ft | 0 kts | 180° |